createdAt,value
2023-08-02T00:01:45.952Z,67.92
2023-08-02T00:04:22.207Z,67.93
2023-08-02T00:06:52.863Z,67.54
2023-08-02T00:09:23.132Z,67.70
2023-08-02T00:11:54.470Z,67.37
2023-08-02T00:14:28.037Z,68.17
2023-08-02T00:16:58.378Z,68.97
2023-08-02T00:19:31.352Z,68.41
2023-08-02T00:22:04.017Z,69.42
2023-08-02T00:24:36.341Z,69.63
2023-08-02T00:27:09.778Z,69.62
2023-08-02T00:29:40.519Z,69.82
2023-08-02T00:32:11.364Z,69.90
2023-08-02T00:34:49.433Z,70.05
2023-08-02T00:37:19.789Z,69.92
2023-08-02T00:40:01.104Z,69.71
2023-08-02T00:42:31.393Z,69.65
2023-08-02T00:45:04.878Z,69.87
2023-08-02T00:47:38.756Z,69.75
2023-08-02T00:50:13.381Z,70.13
2023-08-02T00:52:44.107Z,70.08
2023-08-02T00:55:14.414Z,70.88
2023-08-02T00:57:47.595Z,70.45
2023-08-02T01:00:19.999Z,70.73
2023-08-02T01:02:54.110Z,71.01
2023-08-02T01:05:37.018Z,70.24
2023-08-02T01:08:10.907Z,70.50
2023-08-02T01:10:50.223Z,70.71
2023-08-02T01:13:22.967Z,70.67
2023-08-02T01:15:53.434Z,70.25
2023-08-02T01:18:24.623Z,70.14
2023-08-02T01:20:57.479Z,70.28
2023-08-02T01:23:28.536Z,70.60
2023-08-02T01:26:02.446Z,70.36
2023-08-02T01:28:35.140Z,70.79
2023-08-02T01:31:07.080Z,70.89
2023-08-02T01:33:50.592Z,71.18
2023-08-02T01:36:26.774Z,71.24
2023-08-02T01:38:59.398Z,71.23
2023-08-02T01:41:29.757Z,71.54
2023-08-02T01:44:02.419Z,72.00
2023-08-02T01:46:40.070Z,71.63
2023-08-02T01:49:10.799Z,71.51
2023-08-02T01:51:43.688Z,71.54
2023-08-02T01:54:13.970Z,72.03
2023-08-02T01:56:47.112Z,72.14
2023-08-02T01:59:20.463Z,72.34
2023-08-02T02:01:50.774Z,71.78
2023-08-02T02:04:21.244Z,72.27
2023-08-02T02:06:54.544Z,72.18
2023-08-02T02:09:24.834Z,72.89
2023-08-02T02:12:18.057Z,72.24
2023-08-02T02:15:07.411Z,72.58
2023-08-02T02:17:37.824Z,72.74
2023-08-02T02:20:10.061Z,72.86
2023-08-02T02:22:43.119Z,72.66
2023-08-02T02:25:16.209Z,73.06
2023-08-02T02:27:49.402Z,72.75
2023-08-02T02:30:22.789Z,72.86
2023-08-02T02:33:11.385Z,73.20
2023-08-02T02:35:44.590Z,73.23
2023-08-02T02:38:20.942Z,72.86
2023-08-02T02:40:51.553Z,72.85
2023-08-02T02:43:24.036Z,73.00
2023-08-02T02:45:58.242Z,72.55
2023-08-02T02:48:28.900Z,73.35
2023-08-02T02:51:00.214Z,73.22
2023-08-02T02:53:35.644Z,73.09
2023-08-02T02:56:05.994Z,72.95
2023-08-02T02:58:36.502Z,73.43
2023-08-02T03:01:12.877Z,73.13
2023-08-02T03:03:44.421Z,72.98
2023-08-02T03:06:17.725Z,73.50
2023-08-02T03:08:53.032Z,73.27
2023-08-02T03:11:23.339Z,73.58
2023-08-02T03:13:59.475Z,73.05
2023-08-02T03:16:29.857Z,73.49
2023-08-02T03:19:07.583Z,73.49
2023-08-02T03:21:37.923Z,73.25
2023-08-02T03:24:10.829Z,73.29
2023-08-02T03:26:41.245Z,73.24
2023-08-02T03:29:11.875Z,72.61
2023-08-02T03:31:42.483Z,72.60
2023-08-02T03:34:16.562Z,72.50
2023-08-02T03:36:46.838Z,72.84
2023-08-02T03:39:21.344Z,72.97
2023-08-02T03:41:51.603Z,72.93
2023-08-02T03:44:21.873Z,72.93
2023-08-02T03:46:51.820Z,73.59
2023-08-02T03:49:22.328Z,73.63
2023-08-02T03:51:55.192Z,73.20
2023-08-02T03:54:39.173Z,72.94
2023-08-02T03:57:09.689Z,73.01
2023-08-02T03:59:42.021Z,73.18
2023-08-02T04:02:14.810Z,72.84
2023-08-02T04:04:45.167Z,72.25
2023-08-02T04:07:18.894Z,72.22
2023-08-02T04:09:52.071Z,71.54
2023-08-02T04:12:22.761Z,71.63
2023-08-02T04:14:55.502Z,71.47
2023-08-02T04:17:31.974Z,70.45
2023-08-02T04:20:05.802Z,70.57
2023-08-02T04:22:36.078Z,70.41
2023-08-02T04:25:13.238Z,69.80
2023-08-02T04:27:43.522Z,69.18
2023-08-02T04:30:15.488Z,68.97
2023-08-02T04:32:46.960Z,68.13
2023-08-02T04:35:18.331Z,67.79
2023-08-02T04:37:49.407Z,67.15
2023-08-02T04:40:22.215Z,66.53
2023-08-02T04:42:55.542Z,65.63
2023-08-02T04:45:28.853Z,63.51
2023-08-02T04:47:59.425Z,59.97
2023-08-02T04:50:34.284Z,57.88
2023-08-02T04:53:05.159Z,55.12
2023-08-02T04:55:47.300Z,52.54
2023-08-02T04:58:17.877Z,50.94
2023-08-02T05:00:48.162Z,50.19
2023-08-02T05:03:18.413Z,50.16
2023-08-02T05:05:51.118Z,48.81
2023-08-02T05:08:23.740Z,49.08
2023-08-02T05:10:56.562Z,49.99
2023-08-02T05:13:28.991Z,50.72
2023-08-02T05:16:00.528Z,50.40
2023-08-02T05:18:30.911Z,51.78
2023-08-02T05:21:04.066Z,54.24
2023-08-02T05:23:39.125Z,55.59
2023-08-02T05:26:19.726Z,54.67
2023-08-02T05:28:52.787Z,52.45
2023-08-02T05:31:25.332Z,53.01
2023-08-02T05:33:55.608Z,54.99
2023-08-02T05:36:25.874Z,57.02
2023-08-02T05:38:56.678Z,57.37
2023-08-02T05:41:37.028Z,56.06
2023-08-02T05:44:10.125Z,55.76
2023-08-02T05:46:44.994Z,54.87
2023-08-02T05:49:16.347Z,53.52
2023-08-02T05:51:47.399Z,52.56
2023-08-02T05:54:18.257Z,52.15
2023-08-02T05:56:51.102Z,49.52
2023-08-02T05:59:27.302Z,48.38
2023-08-02T06:01:57.319Z,47.77
2023-08-02T06:04:31.214Z,48.44
2023-08-02T06:07:01.546Z,48.05
2023-08-02T06:09:31.831Z,49.05
2023-08-02T06:12:07.524Z,50.19
2023-08-02T06:14:37.835Z,49.87
2023-08-02T06:17:09.638Z,50.21
2023-08-02T06:19:44.806Z,48.45
2023-08-02T06:22:16.781Z,46.22
2023-08-02T06:24:52.923Z,47.24
2023-08-02T06:27:28.973Z,46.70
2023-08-02T06:29:59.192Z,45.83
2023-08-02T06:32:32.261Z,46.93
2023-08-02T06:35:11.114Z,46.00
2023-08-02T06:37:41.672Z,45.14
2023-08-02T06:40:13.886Z,45.40
2023-08-02T06:42:49.928Z,44.34
2023-08-02T06:45:19.986Z,43.69
2023-08-02T06:47:51.665Z,44.41
2023-08-02T06:50:24.945Z,45.01
2023-08-02T06:52:55.477Z,44.72
2023-08-02T06:55:27.035Z,44.67
2023-08-02T06:58:04.719Z,44.51
2023-08-02T07:00:36.260Z,45.33
2023-08-02T07:03:07.452Z,43.85
2023-08-02T07:05:41.532Z,43.20
2023-08-02T07:08:12.247Z,43.62
2023-08-02T07:10:47.898Z,43.30
2023-08-02T07:13:20.712Z,44.37
2023-08-02T07:15:51.361Z,44.14
2023-08-02T07:18:22.043Z,43.78
2023-08-02T07:20:59.546Z,43.26
2023-08-02T07:23:30.187Z,43.03
2023-08-02T07:26:01.026Z,41.57
2023-08-02T07:28:39.733Z,42.55
2023-08-02T07:31:11.623Z,40.95
2023-08-02T07:33:46.912Z,41.20
2023-08-02T07:36:24.449Z,40.80
2023-08-02T07:38:54.779Z,41.80
2023-08-02T07:41:28.445Z,41.74
2023-08-02T07:44:04.279Z,41.29
2023-08-02T07:46:40.389Z,41.18
2023-08-02T07:49:11.339Z,40.52
2023-08-02T07:51:41.818Z,40.20
2023-08-02T07:54:12.850Z,40.68
2023-08-02T07:56:43.224Z,40.55
2023-08-02T07:59:16.145Z,38.72
2023-08-02T08:01:46.962Z,38.09
2023-08-02T08:04:17.397Z,37.46
2023-08-02T08:06:48.915Z,38.62
2023-08-02T08:09:25.401Z,39.28
2023-08-02T08:11:55.775Z,39.25
2023-08-02T08:14:31.521Z,39.02
2023-08-02T08:17:01.776Z,37.88
2023-08-02T08:19:36.235Z,37.64
2023-08-02T08:22:06.920Z,36.81
2023-08-02T08:24:38.166Z,37.86
2023-08-02T08:27:11.911Z,37.71
2023-08-02T08:29:45.237Z,39.01
2023-08-02T08:32:15.555Z,38.51
2023-08-02T08:34:46.486Z,37.49
2023-08-02T08:37:24.275Z,37.36
2023-08-02T08:40:11.815Z,37.55
2023-08-02T08:42:51.661Z,38.26
2023-08-02T08:45:26.890Z,36.58
2023-08-02T08:48:00.146Z,37.17
2023-08-02T08:50:32.528Z,36.40
2023-08-02T08:53:08.768Z,36.77
2023-08-02T08:55:43.648Z,37.86
2023-08-02T08:58:16.791Z,35.78
2023-08-02T09:00:52.415Z,35.48
2023-08-02T09:03:24.080Z,35.17
2023-08-02T09:06:03.862Z,35.47
2023-08-02T09:08:44.687Z,36.06
2023-08-02T09:11:17.004Z,35.76
2023-08-02T09:13:47.399Z,36.17
2023-08-02T09:16:23.235Z,36.39
2023-08-02T09:18:54.293Z,36.82
2023-08-02T09:21:30.481Z,36.48
2023-08-02T09:24:02.092Z,36.54
2023-08-02T09:26:39.175Z,36.94
2023-08-02T09:29:11.268Z,36.60
2023-08-02T09:31:44.857Z,36.65
2023-08-02T09:34:18.302Z,35.75
2023-08-02T09:36:51.492Z,36.14
2023-08-02T09:39:22.129Z,35.99
2023-08-02T09:42:01.013Z,35.56
2023-08-02T09:44:35.555Z,34.65
2023-08-02T09:47:16.102Z,35.15
2023-08-02T09:49:46.596Z,36.03
2023-08-02T09:52:34.428Z,34.57
2023-08-02T09:55:05.115Z,35.05
2023-08-02T09:57:36.315Z,34.74
2023-08-02T10:00:09.231Z,34.55
2023-08-02T10:02:43.539Z,33.80
2023-08-02T10:05:15.719Z,34.86
2023-08-02T10:07:50.139Z,33.18
2023-08-02T10:10:24.688Z,32.70
2023-08-02T10:12:59.753Z,30.13
2023-08-02T10:15:31.331Z,30.50
2023-08-02T10:18:05.827Z,30.54
2023-08-02T10:20:38.745Z,31.77
2023-08-02T10:23:12.924Z,31.60
2023-08-02T10:25:43.223Z,30.20
2023-08-02T10:28:17.276Z,31.05
2023-08-02T10:30:48.136Z,32.15
2023-08-02T10:33:23.171Z,31.83
2023-08-02T10:36:04.382Z,31.56
2023-08-02T10:38:54.482Z,31.21
2023-08-02T10:41:29.725Z,32.34
2023-08-02T10:44:17.921Z,31.54
2023-08-02T10:46:48.224Z,31.72
2023-08-02T10:49:42.932Z,32.36
2023-08-02T10:52:29.064Z,31.97
2023-08-02T10:55:25.776Z,32.22
2023-08-02T10:58:08.347Z,32.35
2023-08-02T11:00:41.089Z,29.47
2023-08-02T11:03:11.489Z,30.17
2023-08-02T11:05:47.968Z,30.85
2023-08-02T11:08:20.743Z,31.09
2023-08-02T11:10:52.354Z,31.10
2023-08-02T11:13:25.237Z,31.02
2023-08-02T11:16:15.824Z,32.69
2023-08-02T11:18:49.877Z,31.39
2023-08-02T11:21:23.122Z,30.22
2023-08-02T11:26:26.938Z,30.76
2023-08-02T11:28:59.668Z,31.15
2023-08-02T11:31:35.390Z,32.59
2023-08-02T11:34:09.559Z,32.41
2023-08-02T11:36:44.097Z,31.24
2023-08-02T11:39:19.239Z,30.74
2023-08-02T11:41:50.690Z,30.70
2023-08-02T11:44:21.763Z,30.43
2023-08-02T11:46:57.341Z,30.71
2023-08-02T11:49:27.833Z,30.55
2023-08-02T11:52:02.596Z,31.17
2023-08-02T11:54:35.132Z,32.84
2023-08-02T11:57:12.497Z,30.92
2023-08-02T11:59:48.432Z,30.88
2023-08-02T12:02:32.315Z,32.37
2023-08-02T12:05:06.934Z,32.11
2023-08-02T12:07:40.462Z,30.50
2023-08-02T12:10:13.430Z,31.84
2023-08-02T12:12:46.073Z,31.15
2023-08-02T12:15:17.319Z,32.07
2023-08-02T12:17:49.389Z,32.23
2023-08-02T12:20:32.815Z,31.65
2023-08-02T12:23:09.075Z,32.55
2023-08-02T12:25:51.526Z,32.42
2023-08-02T12:28:24.517Z,31.56
2023-08-02T12:31:05.072Z,31.36
2023-08-02T12:33:38.367Z,30.80
2023-08-02T12:36:09.479Z,30.90
2023-08-02T12:38:42.919Z,30.84
2023-08-02T12:41:13.413Z,31.87
2023-08-02T12:43:44.994Z,31.83
2023-08-02T12:46:23.477Z,30.56
2023-08-02T12:48:54.863Z,30.45
2023-08-02T12:51:28.034Z,32.39
2023-08-02T12:54:03.719Z,30.92
2023-08-02T12:56:34.567Z,30.86
2023-08-02T12:59:06.914Z,32.34
2023-08-02T13:01:37.814Z,30.92
2023-08-02T13:04:10.438Z,31.15
2023-08-02T13:06:50.906Z,30.21
2023-08-02T13:09:28.165Z,30.68
2023-08-02T13:12:07.826Z,31.41
2023-08-02T13:14:39.758Z,30.97
2023-08-02T13:17:15.633Z,30.34
2023-08-02T13:19:46.000Z,29.71
2023-08-02T13:22:18.753Z,30.73
2023-08-02T13:24:53.735Z,31.18
2023-08-02T13:27:24.072Z,30.50
2023-08-02T13:29:54.427Z,30.82
2023-08-02T13:32:24.815Z,30.62
2023-08-02T13:34:59.058Z,29.96
2023-08-02T13:37:30.245Z,30.18
2023-08-02T13:40:08.423Z,29.71
2023-08-02T13:42:39.685Z,28.77
2023-08-02T13:45:10.877Z,28.91
2023-08-02T13:47:41.238Z,28.20
2023-08-02T13:50:14.442Z,29.84
2023-08-02T13:52:44.861Z,27.61
2023-08-02T13:55:20.680Z,28.15
2023-08-02T13:57:50.919Z,27.22
2023-08-02T14:00:21.332Z,28.19
2023-08-02T14:02:54.708Z,27.07
2023-08-02T14:05:26.367Z,27.58
2023-08-02T14:08:04.835Z,28.11
2023-08-02T14:10:37.490Z,27.67
2023-08-02T14:13:10.548Z,27.60
2023-08-02T14:15:43.012Z,27.36
2023-08-02T14:18:13.507Z,27.63
2023-08-02T14:20:43.872Z,27.77
2023-08-02T14:23:16.942Z,27.11
2023-08-02T14:25:50.032Z,27.44
2023-08-02T14:28:20.693Z,27.58
2023-08-02T14:30:51.080Z,28.16
2023-08-02T14:33:23.945Z,28.54
2023-08-02T14:35:54.358Z,28.43
2023-08-02T14:38:27.489Z,28.44
2023-08-02T14:41:00.793Z,28.42
2023-08-02T14:43:33.297Z,28.23
2023-08-02T14:46:06.454Z,28.49
2023-08-02T14:48:36.869Z,27.97
2023-08-02T14:51:07.781Z,27.94
2023-08-02T14:53:41.575Z,28.56
2023-08-02T14:56:17.196Z,28.20
2023-08-02T14:58:50.478Z,27.68
2023-08-02T15:01:26.023Z,27.83
2023-08-02T15:03:57.304Z,27.59
2023-08-02T15:06:28.346Z,27.92
2023-08-02T15:08:58.753Z,27.35
2023-08-02T15:11:31.860Z,27.42
2023-08-02T15:14:02.234Z,28.63
2023-08-02T15:16:32.593Z,28.28
2023-08-02T15:19:05.725Z,28.43
2023-08-02T15:21:39.845Z,27.91
2023-08-02T15:24:12.815Z,28.04
2023-08-02T15:26:45.798Z,27.77
2023-08-02T15:29:16.702Z,28.66
2023-08-02T15:31:47.037Z,28.91
2023-08-02T15:34:22.168Z,28.97
2023-08-02T15:36:52.859Z,29.22
2023-08-02T15:39:26.934Z,28.46
2023-08-02T15:41:59.876Z,28.68
2023-08-02T15:44:30.206Z,28.52
2023-08-02T15:47:00.713Z,28.52
2023-08-02T15:49:31.046Z,28.65
2023-08-02T15:52:01.489Z,28.47
2023-08-02T15:54:32.055Z,28.27
2023-08-02T15:57:07.702Z,28.46
2023-08-02T15:59:43.229Z,28.22
2023-08-02T16:02:16.124Z,28.11
2023-08-02T16:04:46.662Z,28.16
2023-08-02T16:07:17.278Z,29.09
2023-08-02T16:09:55.224Z,28.62
2023-08-02T16:12:35.270Z,29.25
2023-08-02T16:15:05.781Z,29.57
2023-08-02T16:17:38.571Z,29.82
2023-08-02T16:20:10.824Z,29.69
2023-08-02T16:25:14.244Z,30.16
2023-08-02T16:27:52.124Z,30.43
2023-08-02T16:30:25.280Z,30.00
2023-08-02T16:32:55.624Z,30.54
2023-08-02T16:35:31.567Z,30.68
2023-08-02T16:38:04.906Z,30.63
2023-08-02T16:40:38.859Z,31.33
2023-08-02T16:43:11.751Z,31.91
2023-08-02T16:45:43.478Z,32.55
2023-08-02T16:48:18.738Z,32.49
2023-08-02T16:50:51.708Z,32.52
2023-08-02T16:53:22.290Z,32.36
2023-08-02T16:55:52.905Z,32.87
2023-08-02T16:58:27.985Z,33.48
2023-08-02T17:00:58.216Z,33.91
2023-08-02T17:03:31.447Z,33.94
2023-08-02T17:06:01.800Z,34.30
2023-08-02T17:08:32.119Z,34.51
2023-08-02T17:11:02.374Z,35.03
2023-08-02T17:13:37.467Z,35.47
2023-08-02T17:16:08.248Z,35.58
2023-08-02T17:18:38.582Z,35.60
2023-08-02T17:21:10.901Z,36.00
2023-08-02T17:23:41.552Z,36.48
2023-08-02T17:26:15.184Z,36.81
2023-08-02T17:28:51.109Z,36.83
2023-08-02T17:31:26.457Z,37.36
2023-08-02T17:33:57.049Z,37.73
2023-08-02T17:36:29.813Z,37.72
2023-08-02T17:39:00.496Z,38.65
2023-08-02T17:41:33.634Z,38.74
2023-08-02T17:44:06.892Z,39.63
2023-08-02T17:46:37.297Z,40.09
2023-08-02T17:49:07.800Z,40.90
2023-08-02T17:51:39.748Z,41.64
2023-08-02T17:54:10.105Z,42.84
2023-08-02T17:56:43.092Z,43.22
2023-08-02T17:59:17.235Z,43.67
2023-08-02T18:01:49.427Z,43.74
2023-08-02T18:04:27.248Z,44.12
2023-08-02T18:06:57.551Z,44.50
2023-08-02T18:09:30.389Z,44.32
2023-08-02T18:12:01.975Z,44.47
2023-08-02T18:14:34.893Z,44.98
2023-08-02T18:17:05.243Z,44.82
2023-08-02T18:19:36.686Z,45.29
2023-08-02T18:22:10.142Z,45.45
2023-08-02T18:24:43.220Z,45.64
2023-08-02T18:27:13.800Z,45.89
2023-08-02T18:29:46.776Z,46.73
2023-08-02T18:32:17.118Z,46.60
2023-08-02T18:34:51.543Z,47.07
2023-08-02T18:37:21.814Z,47.38
2023-08-02T18:39:55.081Z,47.82
2023-08-02T18:42:28.471Z,47.41
2023-08-02T18:45:03.144Z,47.25
2023-08-02T18:47:34.558Z,47.42
2023-08-02T18:50:07.173Z,47.64
2023-08-02T18:52:38.304Z,47.54
2023-08-02T18:55:12.307Z,47.38
2023-08-02T18:57:42.945Z,47.25
2023-08-02T19:00:17.078Z,47.82
2023-08-02T19:02:48.259Z,47.54
2023-08-02T19:05:18.678Z,47.47
2023-08-02T19:07:52.026Z,47.88
2023-08-02T19:10:22.654Z,47.80
2023-08-02T19:12:53.231Z,47.66
2023-08-02T19:15:31.328Z,48.18
2023-08-02T19:18:03.919Z,48.49
2023-08-02T19:20:35.516Z,48.81
2023-08-02T19:23:09.444Z,49.03
2023-08-02T19:25:42.762Z,49.54
2023-08-02T19:28:18.430Z,50.24
2023-08-02T19:30:53.360Z,50.30
2023-08-02T19:33:23.647Z,50.81
2023-08-02T19:35:56.056Z,51.10
2023-08-02T19:38:31.243Z,51.26
2023-08-02T19:41:02.352Z,51.13
2023-08-02T19:43:32.696Z,51.46
2023-08-02T19:46:05.579Z,51.75
2023-08-02T19:48:42.350Z,51.69
2023-08-02T19:51:15.705Z,51.88
2023-08-02T19:53:47.601Z,52.07
2023-08-02T19:56:23.701Z,52.08
2023-08-02T19:58:54.291Z,52.47
2023-08-02T20:01:32.741Z,52.35
2023-08-02T20:04:08.960Z,52.79
2023-08-02T20:06:45.651Z,52.74
2023-08-02T20:09:17.177Z,52.80
2023-08-02T20:11:47.459Z,52.97
2023-08-02T20:14:24.004Z,53.18
2023-08-02T20:16:56.687Z,53.82
2023-08-02T20:19:28.658Z,54.28
2023-08-02T20:21:58.926Z,54.09
2023-08-02T20:24:29.241Z,54.51
2023-08-02T20:27:02.687Z,54.73
2023-08-02T20:29:33.729Z,54.39
2023-08-02T20:32:07.485Z,54.56
2023-08-02T20:34:38.795Z,54.95
2023-08-02T20:37:14.707Z,54.80
2023-08-02T20:39:48.096Z,54.62
2023-08-02T20:42:18.506Z,55.27
2023-08-02T20:44:52.809Z,55.58
2023-08-02T20:47:25.906Z,55.61
2023-08-02T20:49:58.781Z,55.67
2023-08-02T20:52:29.153Z,55.70
2023-08-02T20:55:00.587Z,55.99
2023-08-02T20:57:31.111Z,55.91
2023-08-02T21:00:06.442Z,56.12
2023-08-02T21:02:43.611Z,55.98
2023-08-02T21:05:17.140Z,55.71
2023-08-02T21:07:50.610Z,56.03
2023-08-02T21:10:29.302Z,56.31
2023-08-02T21:13:07.308Z,56.08
2023-08-02T21:15:37.685Z,56.15
2023-08-02T21:18:13.612Z,56.24
2023-08-02T21:20:48.298Z,56.31
2023-08-02T21:23:20.034Z,56.35
2023-08-02T21:25:52.250Z,56.25
2023-08-02T21:28:24.437Z,56.70
2023-08-02T21:30:57.970Z,56.39
2023-08-02T21:33:35.443Z,56.31
2023-08-02T21:36:06.195Z,56.06
2023-08-02T21:38:40.173Z,56.81
2023-08-02T21:41:13.271Z,56.83
2023-08-02T21:43:46.208Z,57.36
2023-08-02T21:46:18.875Z,57.14
2023-08-02T21:48:55.609Z,57.17
2023-08-02T21:51:29.334Z,57.40
2023-08-02T21:54:00.970Z,57.43
2023-08-02T21:56:35.731Z,57.05
2023-08-02T21:59:06.582Z,57.61
2023-08-02T22:01:37.240Z,57.41
2023-08-02T22:04:14.429Z,57.25
2023-08-02T22:06:53.737Z,57.56
2023-08-02T22:09:27.260Z,57.29
2023-08-02T22:11:57.872Z,57.38
2023-08-02T22:14:31.091Z,57.79
2023-08-02T22:17:08.437Z,57.56
2023-08-02T22:19:44.238Z,57.92
2023-08-02T22:22:17.941Z,58.13
2023-08-02T22:24:53.520Z,57.98
2023-08-02T22:27:28.500Z,58.14
2023-08-02T22:30:00.085Z,58.76
2023-08-02T22:32:33.734Z,58.25
2023-08-02T22:35:07.523Z,58.33
2023-08-02T22:37:38.166Z,58.70
2023-08-02T22:40:13.600Z,58.73
2023-08-02T22:42:46.939Z,58.92
2023-08-02T22:45:17.436Z,59.40
2023-08-02T22:48:03.230Z,59.60
2023-08-02T22:53:15.110Z,59.70
2023-08-02T22:55:45.679Z,59.61
2023-08-02T22:58:22.080Z,59.63
2023-08-02T23:00:53.058Z,59.68
2023-08-02T23:03:35.304Z,59.90
2023-08-02T23:06:15.747Z,60.07
2023-08-02T23:08:46.098Z,60.07
2023-08-02T23:11:20.064Z,59.78
2023-08-02T23:13:53.562Z,60.26
2023-08-02T23:16:25.329Z,60.01
2023-08-02T23:19:01.595Z,60.55
2023-08-02T23:21:42.208Z,60.29
2023-08-02T23:24:15.424Z,60.81
2023-08-02T23:26:48.069Z,60.36
2023-08-02T23:29:21.522Z,60.31
2023-08-02T23:31:54.767Z,60.66
2023-08-02T23:34:25.606Z,60.78
2023-08-02T23:36:59.028Z,61.06
2023-08-02T23:39:29.341Z,60.99
2023-08-02T23:42:00.002Z,60.92
2023-08-02T23:44:36.615Z,60.69
2023-08-02T23:47:13.625Z,61.19
2023-08-02T23:49:43.898Z,60.92
2023-08-02T23:52:16.833Z,61.28
2023-08-02T23:54:47.171Z,61.04
2023-08-02T23:57:17.486Z,61.04
2023-08-02T23:59:48.214Z,61.29
